Time;durP1;ratioP1;P1;durP2;ratioP2;P2;SDS_P1;SDS_P2;PMS_P1;PMS_P2;Temp;Humidity;BMP_temperature;BMP_pressure;BME280_temperature;BME280_humidity;BME280_pressure;Samples;Min_cycle;Max_cycle;Signal;HPM_P1;HPM_P2
2023/02/04 00:01:42;;;;;;;28.42;5.10;;;8.80;63.00;;;;;;5038212;28;20423;-75
2023/02/04 00:04:08;;;;;;;28.80;5.28;;;8.80;62.50;;;;;;5042960;28;20753;-76
2023/02/04 00:06:34;;;;;;;32.05;5.60;;;8.80;63.10;;;;;;5038817;28;20689;-75
2023/02/04 00:08:59;;;;;;;23.70;4.45;;;8.80;63.20;;;;;;5045348;28;20721;-75
2023/02/04 00:11:25;;;;;;;32.30;5.38;;;8.80;63.20;;;;;;5043824;28;20441;-73
2023/02/04 00:13:50;;;;;;;37.00;5.78;;;8.80;63.90;;;;;;5037715;28;20870;-74
2023/02/04 00:16:16;;;;;;;25.52;5.22;;;8.90;63.90;;;;;;5032906;28;20418;-74
2023/02/04 00:18:41;;;;;;;24.92;4.40;;;8.90;63.50;;;;;;5033947;28;20390;-75
2023/02/04 00:21:07;;;;;;;21.58;4.50;;;8.80;63.20;;;;;;5030939;28;20395;-73
2023/02/04 00:23:32;;;;;;;22.23;4.68;;;8.80;63.00;;;;;;5032367;28;20391;-73
2023/02/04 00:25:58;;;;;;;31.60;6.28;;;8.90;62.30;;;;;;5032606;28;20546;-74
2023/02/04 00:28:23;;;;;;;38.03;7.00;;;8.80;63.70;;;;;;5032089;28;20453;-75
2023/02/04 00:30:49;;;;;;;31.73;6.50;;;8.80;62.50;;;;;;5032804;28;20946;-75
2023/02/04 00:33:15;;;;;;;31.33;6.50;;;8.80;63.70;;;;;;5032120;28;20383;-74
2023/02/04 00:35:40;;;;;;;34.50;6.90;;;8.90;62.70;;;;;;5032056;28;20414;-74
2023/02/04 00:38:06;;;;;;;35.93;6.30;;;8.80;62.90;;;;;;5032288;28;20871;-75
2023/02/04 00:40:32;;;;;;;23.85;5.90;;;8.90;63.10;;;;;;5031774;28;20955;-75
2023/02/04 00:42:58;;;;;;;34.97;6.50;;;8.90;63.20;;;;;;5031940;28;20394;-72
2023/02/04 00:45:24;;;;;;;35.00;6.10;;;8.90;63.50;;;;;;5031589;28;20763;-73
2023/02/04 00:47:49;;;;;;;32.90;6.35;;;8.80;63.20;;;;;;5032569;28;20808;-74
2023/02/04 00:50:16;;;;;;;23.98;5.57;;;8.80;63.70;;;;;;5031589;28;20800;-74
2023/02/04 00:52:41;;;;;;;31.67;6.40;;;8.80;63.50;;;;;;5031575;28;21017;-74
2023/02/04 00:55:09;;;;;;;28.58;6.40;;;8.80;63.40;;;;;;5031743;28;20426;-74
2023/02/04 00:57:34;;;;;;;29.27;5.30;;;8.80;63.70;;;;;;5031950;28;20392;-75
2023/02/04 01:00:00;;;;;;;27.52;5.40;;;8.80;63.60;;;;;;5031548;28;20383;-74
2023/02/04 01:02:25;;;;;;;34.80;6.95;;;8.90;63.50;;;;;;5031269;28;20410;-75
2023/02/04 01:04:55;;;;;;;40.75;7.25;;;8.80;62.90;;;;;;5031356;28;20403;-76
2023/02/04 01:07:20;;;;;;;31.53;5.93;;;8.80;62.70;;;;;;5031523;28;20451;-75
2023/02/04 01:09:46;;;;;;;25.67;5.50;;;8.80;63.20;;;;;;5031650;28;20871;-74
2023/02/04 01:12:12;;;;;;;27.73;5.73;;;8.80;63.90;;;;;;5031190;28;20386;-74
2023/02/04 01:14:37;;;;;;;31.67;6.33;;;8.70;64.90;;;;;;5030207;28;20426;-74
2023/02/04 01:17:03;;;;;;;34.00;5.13;;;8.70;65.90;;;;;;5031245;28;20474;-73
2023/02/04 01:19:28;;;;;;;41.40;6.93;;;8.70;66.70;;;;;;5031555;28;20391;-73
2023/02/04 01:21:54;;;;;;;30.45;6.90;;;8.70;67.40;;;;;;5031491;28;20414;-74
2023/02/04 01:24:20;;;;;;;32.88;6.70;;;8.70;68.20;;;;;;5031088;28;20430;-75
2023/02/04 01:26:45;;;;;;;31.33;5.55;;;8.70;68.40;;;;;;5031150;28;20390;-73
2023/02/04 01:29:11;;;;;;;29.27;6.25;;;8.70;68.90;;;;;;5031077;28;20883;-75
2023/02/04 01:31:36;;;;;;;23.83;5.40;;;8.60;69.20;;;;;;5030982;28;20462;-74
2023/02/04 01:34:02;;;;;;;25.13;6.00;;;8.60;69.70;;;;;;5030884;28;20387;-72
2023/02/04 01:36:28;;;;;;;36.80;6.63;;;8.60;70.60;;;;;;5030978;28;20395;-75
2023/02/04 01:38:53;;;;;;;32.55;6.20;;;8.60;70.30;;;;;;5030882;28;20823;-75
2023/02/04 01:41:19;;;;;;;33.50;6.60;;;8.60;70.40;;;;;;5030973;28;20387;-74
2023/02/04 01:43:46;;;;;;;30.27;6.35;;;8.70;69.80;;;;;;5030964;28;20498;-74
2023/02/04 01:46:12;;;;;;;32.78;6.93;;;8.60;69.20;;;;;;5029392;28;20410;-74
2023/02/04 01:48:37;;;;;;;26.83;5.80;;;8.60;70.20;;;;;;5030866;28;20796;-74
2023/02/04 01:51:09;;;;;;;32.00;5.30;;;8.60;70.10;;;;;;5029540;28;20387;-73
2023/02/04 01:53:36;;;;;;;23.67;5.30;;;8.60;70.20;;;;;;5030607;28;20391;-74
2023/02/04 01:56:14;;;;;;;25.77;5.70;;;8.60;70.80;;;;;;5070725;22;20941;-73
2023/02/04 01:58:40;;;;;;;30.13;6.63;;;8.60;71.50;;;;;;5072074;28;20717;-75
2023/02/04 02:01:12;;;;;;;34.80;5.93;;;8.60;72.20;;;;;;5071151;28;20387;-74
2023/02/04 02:03:37;;;;;;;33.92;6.72;;;8.60;71.30;;;;;;5070850;28;20381;-73
2023/02/04 02:06:03;;;;;;;32.00;5.90;;;8.60;71.10;;;;;;5071697;28;20384;-73
2023/02/04 02:08:29;;;;;;;32.38;5.88;;;8.70;70.60;;;;;;5071722;28;20441;-74
2023/02/04 02:10:54;;;;;;;30.73;5.72;;;8.60;70.20;;;;;;5073029;28;20738;-73
2023/02/04 02:13:20;;;;;;;30.95;6.43;;;8.60;70.10;;;;;;5074280;28;20868;-73
2023/02/04 02:15:46;;;;;;;29.48;5.43;;;8.60;70.40;;;;;;5076291;28;20390;-72
2023/02/04 02:18:12;;;;;;;29.83;6.20;;;8.50;71.40;;;;;;5071536;28;20887;-73
2023/02/04 02:20:38;;;;;;;34.13;5.80;;;8.50;71.10;;;;;;5073844;28;20400;-73
2023/02/04 02:23:15;;;;;;;32.75;7.20;;;8.50;71.10;;;;;;5074296;28;20453;-74
2023/02/04 02:25:41;;;;;;;25.80;6.25;;;8.50;70.70;;;;;;5069054;28;20968;-73
2023/02/04 02:28:11;;;;;;;29.77;6.30;;;8.50;70.20;;;;;;5084498;28;20415;-72
2023/02/04 02:30:37;;;;;;;28.55;5.55;;;8.50;70.40;;;;;;5074390;28;20394;-74
2023/02/04 02:33:04;;;;;;;27.75;5.40;;;8.50;71.20;;;;;;5072109;28;20529;-73
2023/02/04 02:35:30;;;;;;;30.75;5.30;;;8.50;71.90;;;;;;5072301;28;20713;-72
2023/02/04 02:37:56;;;;;;;36.23;6.40;;;8.50;71.00;;;;;;5070972;28;20388;-71
2023/02/04 02:40:22;;;;;;;36.55;5.93;;;8.40;71.00;;;;;;5071166;28;20380;-73
2023/02/04 02:42:50;;;;;;;38.03;6.10;;;8.40;71.40;;;;;;5072521;28;20733;-73
2023/02/04 02:45:26;;;;;;;32.55;6.18;;;8.40;72.50;;;;;;5078845;28;20394;-73
2023/02/04 02:47:52;;;;;;;25.70;4.50;;;8.40;73.10;;;;;;5088171;28;20837;-72
2023/02/04 02:50:24;;;;;;;31.05;5.07;;;8.30;71.50;;;;;;5086735;28;20380;-73
2023/02/04 02:52:51;;;;;;;32.33;5.55;;;8.30;72.20;;;;;;5081489;28;20466;-74
2023/02/04 02:55:21;;;;;;;32.60;5.97;;;8.40;72.00;;;;;;5073318;28;20738;-72
2023/02/04 02:57:48;;;;;;;29.90;6.03;;;8.30;72.00;;;;;;5073901;28;20443;-72
2023/02/04 03:00:22;;;;;;;26.40;5.00;;;8.30;72.00;;;;;;5073653;28;20387;-73
2023/02/04 03:03:00;;;;;;;29.38;6.25;;;8.30;72.00;;;;;;5074437;28;20390;-74
2023/02/04 03:05:28;;;;;;;22.83;5.10;;;8.30;71.80;;;;;;5074863;28;20425;-73
2023/02/04 03:07:54;;;;;;;29.75;5.75;;;8.30;71.40;;;;;;5074731;28;20383;-73
2023/02/04 03:10:19;;;;;;;29.05;5.47;;;8.30;72.20;;;;;;5073005;28;20379;-73
2023/02/04 03:12:46;;;;;;;29.35;5.22;;;8.30;71.70;;;;;;5072841;28;20391;-73
2023/02/04 03:15:12;;;;;;;30.25;5.90;;;8.30;72.40;;;;;;5072908;28;20396;-72
2023/02/04 03:17:38;;;;;;;19.43;4.40;;;8.20;72.50;;;;;;5073132;28;20411;-73
2023/02/04 03:20:04;;;;;;;23.10;4.30;;;8.30;73.00;;;;;;5073051;28;20392;-71
2023/02/04 03:22:30;;;;;;;27.15;4.97;;;8.20;72.40;;;;;;5072852;28;20383;-72
2023/02/04 03:24:57;;;;;;;35.97;6.47;;;8.20;72.50;;;;;;5071640;28;20976;-74
2023/02/04 03:27:23;;;;;;;30.27;5.70;;;8.20;73.30;;;;;;5072686;28;20384;-73
2023/02/04 03:29:49;;;;;;;31.58;5.57;;;8.20;73.40;;;;;;5072738;28;20459;-74
2023/02/04 03:32:15;;;;;;;26.90;5.07;;;8.20;74.10;;;;;;5072413;28;20874;-74
2023/02/04 03:34:40;;;;;;;32.60;5.97;;;8.20;74.90;;;;;;5072772;28;20512;-73
2023/02/04 03:37:07;;;;;;;30.90;5.47;;;8.20;74.40;;;;;;5072616;28;20390;-75
2023/02/04 03:39:33;;;;;;;26.90;5.10;;;8.20;75.20;;;;;;5072465;28;20387;-74
2023/02/04 03:41:58;;;;;;;24.30;4.53;;;8.20;75.80;;;;;;5071302;28;20411;-73
2023/02/04 03:44:25;;;;;;;25.35;6.13;;;8.10;76.70;;;;;;5072753;28;20907;-72
2023/02/04 03:46:54;;;;;;;39.28;6.90;;;8.10;77.60;;;;;;5072297;28;20390;-72
2023/02/04 03:49:20;;;;;;;25.13;5.15;;;8.10;78.20;;;;;;5072198;28;20383;-74
2023/02/04 03:51:45;;;;;;;25.17;4.72;;;8.10;78.30;;;;;;5072199;28;20395;-72
2023/02/04 03:54:11;;;;;;;27.83;5.22;;;8.10;78.70;;;;;;5072151;28;20902;-73
2023/02/04 03:56:36;;;;;;;29.30;5.55;;;8.00;79.80;;;;;;5072132;28;20399;-73
2023/02/04 03:59:02;;;;;;;28.90;5.47;;;8.00;80.20;;;;;;5070609;28;20384;-72
2023/02/04 04:01:28;;;;;;;22.23;5.47;;;8.00;80.40;;;;;;5071747;28;20396;-73
2023/02/04 04:03:53;;;;;;;26.42;4.93;;;8.00;80.90;;;;;;5071828;28;20400;-73
2023/02/04 04:06:19;;;;;;;32.35;5.50;;;8.00;81.50;;;;;;5071865;28;20383;-72
2023/02/04 04:08:44;;;;;;;27.23;5.00;;;8.00;81.40;;;;;;5072011;28;20689;-72
2023/02/04 04:11:10;;;;;;;29.13;5.40;;;8.00;82.10;;;;;;5071707;28;20429;-73
2023/02/04 04:13:35;;;;;;;32.17;5.60;;;8.00;82.90;;;;;;5071883;28;20404;-74
2023/02/04 04:16:02;;;;;;;33.55;6.22;;;7.90;83.40;;;;;;5071780;28;20384;-74
2023/02/04 04:18:28;;;;;;;31.10;5.35;;;7.90;83.90;;;;;;5070662;28;20391;-73
2023/02/04 04:20:53;;;;;;;32.13;6.33;;;7.90;84.00;;;;;;5071039;28;20403;-73
2023/02/04 04:23:19;;;;;;;39.67;6.50;;;7.90;85.30;;;;;;5073006;28;20411;-74
2023/02/04 04:25:44;;;;;;;33.80;6.47;;;7.80;86.00;;;;;;5073106;28;20418;-75
2023/02/04 04:28:10;;;;;;;32.93;6.20;;;7.80;86.80;;;;;;5072769;28;20379;-73
2023/02/04 04:30:36;;;;;;;28.50;5.70;;;7.80;86.80;;;;;;5072909;28;20396;-74
2023/02/04 04:33:01;;;;;;;21.83;5.20;;;7.80;87.80;;;;;;5072528;28;20403;-73
2023/02/04 04:35:27;;;;;;;35.75;5.53;;;7.70;88.50;;;;;;5072541;28;20392;-74
2023/02/04 04:37:52;;;;;;;30.67;5.72;;;7.70;89.50;;;;;;5072873;28;20462;-74
2023/02/04 04:40:18;;;;;;;32.27;4.80;;;7.80;89.80;;;;;;5072197;28;20869;-73
2023/02/04 04:42:43;;;;;;;38.10;5.70;;;7.70;89.60;;;;;;5070750;28;20459;-73
2023/02/04 04:45:10;;;;;;;37.30;6.03;;;7.70;90.70;;;;;;5071094;28;20415;-73
2023/02/04 04:47:35;;;;;;;31.67;5.70;;;7.70;91.40;;;;;;5071299;28;20805;-71
2023/02/04 04:50:01;;;;;;;31.50;5.95;;;7.70;91.20;;;;;;5071217;28;20376;-74
2023/02/04 04:52:27;;;;;;;41.35;6.30;;;7.80;90.60;;;;;;5070786;28;20383;-74
2023/02/04 04:54:52;;;;;;;30.40;5.90;;;7.80;90.30;;;;;;5070796;28;20486;-74
2023/02/04 04:57:18;;;;;;;31.85;6.05;;;7.70;90.40;;;;;;5071058;28;20898;-73
2023/02/04 04:59:43;;;;;;;22.85;4.50;;;7.70;91.50;;;;;;5071227;28;20394;-73
2023/02/04 05:02:09;;;;;;;30.45;6.28;;;7.70;92.20;;;;;;5070810;28;20384;-73
2023/02/04 05:04:34;;;;;;;25.00;5.60;;;7.60;93.00;;;;;;5070846;28;20892;-75
2023/02/04 05:07:00;;;;;;;31.85;6.80;;;7.60;93.30;;;;;;5071192;28;20384;-71
2023/02/04 05:09:25;;;;;;;33.65;5.50;;;7.70;93.50;;;;;;5070914;28;20376;-72
2023/02/04 05:11:51;;;;;;;28.13;5.80;;;7.70;93.30;;;;;;5071360;28;20772;-73
2023/02/04 05:14:16;;;;;;;32.78;5.57;;;7.60;93.70;;;;;;5071118;28;20457;-73
2023/02/04 05:16:42;;;;;;;33.53;6.65;;;7.50;94.50;;;;;;5071067;28;20380;-72
2023/02/04 05:19:07;;;;;;;35.85;6.40;;;7.60;95.30;;;;;;5070903;28;20383;-74
2023/02/04 05:21:33;;;;;;;31.83;6.55;;;7.60;95.20;;;;;;5088965;28;20379;-71
2023/02/04 05:23:58;;;;;;;30.42;5.85;;;7.60;95.00;;;;;;5084241;28;20760;-73
2023/02/04 05:26:25;;;;;;;29.02;6.65;;;7.60;94.60;;;;;;5070463;28;20383;-74
2023/02/04 05:28:51;;;;;;;36.25;6.40;;;7.60;94.90;;;;;;5070689;28;20371;-72
2023/02/04 05:31:17;;;;;;;26.80;6.30;;;7.60;94.80;;;;;;5070550;28;20443;-73
2023/02/04 05:33:42;;;;;;;27.20;6.50;;;7.60;94.60;;;;;;5069325;28;20388;-75
2023/02/04 05:36:08;;;;;;;32.40;6.80;;;7.60;94.60;;;;;;5070672;28;20765;-73
2023/02/04 05:38:33;;;;;;;24.60;6.27;;;7.70;93.30;;;;;;5070594;28;20475;-73
2023/02/04 05:40:59;;;;;;;41.30;7.40;;;7.70;93.20;;;;;;5070346;28;20387;-71
2023/02/04 05:43:24;;;;;;;29.37;5.80;;;7.60;93.30;;;;;;5070336;28;20421;-73
2023/02/04 05:45:50;;;;;;;30.20;6.33;;;7.60;93.40;;;;;;5069188;28;20787;-73
2023/02/04 05:48:15;;;;;;;30.50;6.73;;;7.60;93.60;;;;;;5070687;28;20383;-73
2023/02/04 05:50:41;;;;;;;34.57;7.10;;;7.60;93.20;;;;;;5070636;28;20383;-73
2023/02/04 05:53:06;;;;;;;28.33;6.47;;;7.60;93.70;;;;;;5071385;28;20375;-73
2023/02/04 05:55:32;;;;;;;35.27;7.00;;;7.60;94.10;;;;;;5073141;28;20391;-72
2023/02/04 05:57:57;;;;;;;28.23;6.10;;;7.70;93.40;;;;;;5074420;28;20871;-73
2023/02/04 06:00:23;;;;;;;30.60;6.57;;;7.70;92.50;;;;;;5074422;28;20467;-72
2023/02/04 06:02:48;;;;;;;35.87;6.70;;;7.70;91.70;;;;;;5074167;28;20803;-73
2023/02/04 06:05:14;;;;;;;34.77;6.57;;;7.70;91.40;;;;;;5073976;28;20399;-74
2023/02/04 06:07:40;;;;;;;30.50;6.60;;;7.70;91.20;;;;;;5074468;28;20379;-73
2023/02/04 06:10:05;;;;;;;27.10;7.00;;;7.70;90.90;;;;;;5074714;28;20429;-75
2023/02/04 06:12:31;;;;;;;35.97;7.60;;;7.70;91.70;;;;;;5074459;28;20466;-74
2023/02/04 06:14:56;;;;;;;30.40;6.88;;;7.70;91.80;;;;;;5074580;28;20472;-75
2023/02/04 06:17:22;;;;;;;34.23;7.10;;;7.70;91.20;;;;;;5074522;28;20378;-73
2023/02/04 06:19:47;;;;;;;36.70;7.10;;;7.80;90.80;;;;;;5074313;28;20391;-72
2023/02/04 06:22:13;;;;;;;34.37;7.17;;;7.80;90.70;;;;;;5074145;28;20383;-75
2023/02/04 06:24:38;;;;;;;50.80;9.17;;;7.80;90.50;;;;;;5074157;28;20509;-74
2023/02/04 06:27:04;;;;;;;29.70;8.03;;;7.70;90.90;;;;;;5073973;28;20384;-72
2023/02/04 06:29:30;;;;;;;38.77;8.40;;;7.80;90.20;;;;;;5073794;28;20380;-73
2023/02/04 06:31:55;;;;;;;35.90;8.00;;;7.80;90.10;;;;;;5074173;28;20376;-74
2023/02/04 06:34:21;;;;;;;37.10;7.50;;;7.80;91.50;;;;;;5073981;28;20868;-73
2023/02/04 06:36:47;;;;;;;30.33;7.43;;;7.80;89.80;;;;;;5074091;28;20379;-74
2023/02/04 06:39:12;;;;;;;33.70;6.70;;;7.80;89.30;;;;;;5074681;28;20956;-72
2023/02/04 06:41:38;;;;;;;39.00;8.20;;;7.90;88.10;;;;;;5073538;28;20407;-74
2023/02/04 06:44:04;;;;;;;33.28;7.60;;;7.90;86.70;;;;;;5073956;28;20399;-72
2023/02/04 06:46:29;;;;;;;27.05;6.55;;;8.00;86.10;;;;;;5073885;28;20733;-73
2023/02/04 06:48:55;;;;;;;36.17;8.30;;;8.00;85.60;;;;;;5073929;28;20371;-72
2023/02/04 06:51:21;;;;;;;32.03;7.40;;;7.90;87.00;;;;;;5073437;28;20403;-73
2023/02/04 06:53:46;;;;;;;39.97;8.20;;;7.90;86.30;;;;;;5073848;28;20415;-74
2023/02/04 06:56:12;;;;;;;39.07;8.50;;;7.90;85.90;;;;;;5073446;28;20414;-74
2023/02/04 06:58:37;;;;;;;41.13;9.60;;;7.60;88.30;;;;;;5073662;28;20924;-73
2023/02/04 07:01:05;;;;;;;40.30;9.10;;;7.40;93.30;;;;;;5073562;28;20458;-72
2023/02/04 07:03:31;;;;;;;35.65;9.00;;;7.30;97.80;;;;;;5073349;28;20376;-74
2023/02/04 07:05:57;;;;;;;40.03;8.73;;;7.40;99.90;;;;;;5073814;28;20395;-72
2023/02/04 07:08:22;;;;;;;38.80;8.65;;;7.80;90.70;;;;;;5078908;28;20689;-74
2023/02/04 07:10:48;;;;;;;41.97;9.40;;;7.90;86.00;;;;;;5082967;28;20788;-74
2023/02/04 07:13:13;;;;;;;35.30;8.63;;;8.00;84.80;;;;;;5081200;28;20391;-72
2023/02/04 07:15:39;;;;;;;31.80;8.38;;;8.00;85.40;;;;;;5073033;28;20722;-73
2023/02/04 07:18:04;;;;;;;38.03;8.60;;;8.00;84.90;;;;;;5073252;28;20892;-72
2023/02/04 07:20:30;;;;;;;34.80;8.38;;;7.90;84.60;;;;;;5073385;28;20441;-72
2023/02/04 07:22:55;;;;;;;39.50;8.10;;;7.90;85.00;;;;;;5073304;28;20392;-71
2023/02/04 07:25:21;;;;;;;41.33;8.43;;;7.90;85.60;;;;;;5072845;28;20415;-73
2023/02/04 07:27:46;;;;;;;46.40;10.15;;;7.90;86.10;;;;;;5072913;28;20382;-74
2023/02/04 07:30:12;;;;;;;28.08;7.65;;;7.90;86.70;;;;;;5073128;28;20387;-73
2023/02/04 07:32:38;;;;;;;39.40;8.35;;;7.90;86.50;;;;;;5077152;28;20387;-73
2023/02/04 07:35:04;;;;;;;36.10;7.83;;;7.80;87.00;;;;;;5072816;28;20410;-72
2023/02/04 07:37:29;;;;;;;37.93;9.00;;;7.80;87.70;;;;;;5072969;28;20889;-74
2023/02/04 07:39:55;;;;;;;38.00;9.43;;;7.70;88.60;;;;;;5073573;28;20380;-73
2023/02/04 07:42:20;;;;;;;45.63;10.23;;;7.50;94.10;;;;;;5073077;28;20391;-73
2023/02/04 07:44:46;;;;;;;35.77;8.60;;;7.60;95.70;;;;;;5072635;28;20403;-73
2023/02/04 07:47:11;;;;;;;42.20;8.50;;;7.60;94.80;;;;;;5073163;28;20380;-74
2023/02/04 07:49:37;;;;;;;39.33;8.80;;;7.50;94.40;;;;;;5073328;28;20840;-74
2023/02/04 07:52:03;;;;;;;35.88;8.90;;;7.40;96.80;;;;;;5077364;28;20388;-71
2023/02/04 07:54:29;;;;;;;42.35;8.75;;;7.80;94.30;;;;;;5079998;28;20394;-73
2023/02/04 07:56:54;;;;;;;29.93;7.63;;;8.10;87.60;;;;;;5085748;22;20494;-74
2023/02/04 07:59:20;;;;;;;41.77;8.53;;;8.20;83.40;;;;;;5073702;28;20376;-75
2023/02/04 08:01:46;;;;;;;33.93;7.10;;;8.30;81.10;;;;;;5073420;28;20534;-75
2023/02/04 08:04:12;;;;;;;32.60;7.55;;;8.20;82.20;;;;;;5073086;28;20394;-74
2023/02/04 08:06:38;;;;;;;29.30;7.03;;;8.30;81.60;;;;;;5072441;28;20869;-73
2023/02/04 08:09:04;;;;;;;32.65;8.27;;;8.40;79.20;;;;;;5072470;28;20380;-75
2023/02/04 08:11:30;;;;;;;42.38;8.38;;;8.40;80.10;;;;;;5072290;28;20473;-74
2023/02/04 08:13:55;;;;;;;39.83;7.03;;;8.40;78.90;;;;;;5072710;28;20384;-74
2023/02/04 08:16:21;;;;;;;35.57;6.80;;;8.40;79.00;;;;;;5071111;28;20391;-73
2023/02/04 08:18:46;;;;;;;34.17;6.50;;;8.30;79.30;;;;;;5071802;28;20772;-73
2023/02/04 08:21:12;;;;;;;39.03;8.33;;;8.20;80.60;;;;;;5071330;28;20943;-74
2023/02/04 08:23:40;;;;;;;35.37;8.27;;;8.20;82.40;;;;;;5071812;28;20411;-73
2023/02/04 08:26:10;;;;;;;28.17;7.60;;;8.30;81.70;;;;;;5058385;28;20492;-74
2023/02/04 08:28:36;;;;;;;42.97;8.20;;;8.30;81.60;;;;;;5071223;28;20393;-73
2023/02/04 08:31:03;;;;;;;35.67;6.95;;;8.20;81.70;;;;;;5070156;28;20406;-73
2023/02/04 08:33:28;;;;;;;30.13;7.32;;;8.20;82.40;;;;;;5072084;28;20480;-74
2023/02/04 08:35:54;;;;;;;31.23;8.03;;;8.10;83.00;;;;;;5072095;28;20816;-73
2023/02/04 08:38:19;;;;;;;34.73;8.50;;;8.20;83.00;;;;;;5070595;28;20400;-74
2023/02/04 08:40:45;;;;;;;35.60;7.20;;;8.20;83.30;;;;;;5071960;28;20748;-74
2023/02/04 08:43:10;;;;;;;39.13;8.70;;;8.30;83.10;;;;;;5071895;28;20405;-74
2023/02/04 08:45:36;;;;;;;40.70;9.63;;;8.30;83.10;;;;;;5072857;28;20399;-73
2023/02/04 08:48:01;;;;;;;37.43;7.97;;;8.20;84.30;;;;;;5070385;28;20410;-73
2023/02/04 08:50:29;;;;;;;29.97;8.23;;;8.50;82.90;;;;;;5071370;28;20391;-74
2023/02/04 08:52:55;;;;;;;34.45;8.30;;;8.60;77.40;;;;;;5071850;28;20379;-75
2023/02/04 08:55:20;;;;;;;41.00;8.80;;;8.60;77.10;;;;;;5072602;28;20426;-74
2023/02/04 08:57:46;;;;;;;38.17;8.53;;;8.60;78.30;;;;;;5072560;28;20394;-73
2023/02/04 09:00:12;;;;;;;39.07;9.00;;;8.70;77.20;;;;;;5072889;28;20379;-77
2023/02/04 09:02:38;;;;;;;35.53;7.35;;;8.70;77.00;;;;;;5071516;28;20443;-74
2023/02/04 09:05:04;;;;;;;50.17;9.57;;;8.60;77.10;;;;;;5073237;28;20475;-76
2023/02/04 09:07:29;;;;;;;49.30;10.20;;;8.50;79.00;;;;;;5073838;28;21109;-75
2023/02/04 09:09:55;;;;;;;43.70;9.00;;;8.60;79.00;;;;;;5075504;28;20407;-75
2023/02/04 09:12:20;;;;;;;47.60;9.70;;;8.60;78.10;;;;;;5085396;28;20380;-74
2023/02/04 09:14:46;;;;;;;43.00;11.93;;;8.70;77.70;;;;;;5075495;28;20437;-75
2023/02/04 09:17:11;;;;;;;32.97;8.53;;;8.80;80.50;;;;;;5082512;28;20413;-74
2023/02/04 09:19:37;;;;;;;39.83;9.80;;;9.00;75.20;;;;;;5086252;28;20423;-74
2023/02/04 09:22:02;;;;;;;44.13;10.87;;;9.10;71.90;;;;;;5072563;28;20395;-75
2023/02/04 09:24:28;;;;;;;47.33;9.80;;;9.10;71.20;;;;;;5050984;28;20943;-74
2023/02/04 09:26:54;;;;;;;41.63;9.27;;;9.00;71.30;;;;;;5054056;28;20383;-74
2023/02/04 09:29:19;;;;;;;37.50;10.00;;;9.10;72.90;;;;;;5070992;28;20383;-74
2023/02/04 09:31:45;;;;;;;50.50;10.70;;;9.10;71.20;;;;;;5070534;28;20848;-74
2023/02/04 09:34:10;;;;;;;46.38;11.52;;;9.20;71.30;;;;;;5071751;28;20387;-75
2023/02/04 09:36:37;;;;;;;46.13;10.80;;;9.20;72.10;;;;;;5072133;28;20392;-73
2023/02/04 09:39:04;;;;;;;50.10;11.85;;;9.50;71.60;;;;;;5070816;28;20825;-73
2023/02/04 09:41:31;;;;;;;44.55;10.85;;;9.60;67.30;;;;;;5071398;28;20478;-75
2023/02/04 09:43:58;;;;;;;35.97;9.10;;;9.80;64.10;;;;;;5069939;28;20414;-77
2023/02/04 09:46:28;;;;;;;49.03;10.63;;;9.70;64.10;;;;;;5070669;28;20408;-75
2023/02/04 09:48:55;;;;;;;40.30;9.55;;;9.60;65.50;;;;;;5071310;28;20832;-75
2023/02/04 09:51:25;;;;;;;48.75;11.30;;;9.50;66.60;;;;;;5071119;28;20386;-76
2023/02/04 09:53:52;;;;;;;42.97;10.45;;;9.30;67.50;;;;;;5071829;28;20411;-76
2023/02/04 09:56:18;;;;;;;49.72;9.95;;;9.30;68.50;;;;;;5071817;28;20411;-76
2023/02/04 09:58:44;;;;;;;53.25;12.10;;;9.30;68.30;;;;;;5071455;28;20380;-77
2023/02/04 10:01:17;;;;;;;40.97;11.05;;;9.30;70.40;;;;;;5071280;28;20403;-76
2023/02/04 10:03:45;;;;;;;35.08;10.18;;;9.60;69.50;;;;;;5071467;28;20949;-76
2023/02/04 10:06:19;;;;;;;44.08;11.02;;;9.70;64.90;;;;;;5069469;28;20387;-76
2023/02/04 10:08:47;;;;;;;45.08;11.75;;;9.90;62.20;;;;;;5071501;28;20425;-76
2023/02/04 10:11:14;;;;;;;46.70;11.32;;;10.00;61.40;;;;;;5070684;28;20401;-75
2023/02/04 10:13:48;;;;;;;33.22;11.00;;;10.10;59.20;;;;;;5070355;28;20534;-75
2023/02/04 10:16:28;;;;;;;47.45;13.30;;;9.90;59.10;;;;;;5072120;28;20756;-76
2023/02/04 10:19:06;;;;;;;43.67;13.80;;;9.70;61.70;;;;;;5071631;28;20401;-76
2023/02/04 10:21:35;;;;;;;69.20;16.92;;;9.60;63.90;;;;;;5075288;28;20418;-75
2023/02/04 10:24:05;;;;;;;52.60;16.13;;;9.70;64.50;;;;;;5084032;28;20465;-76
2023/02/04 10:26:32;;;;;;;61.70;14.60;;;9.70;64.80;;;;;;5080043;28;20375;-76
2023/02/04 10:29:05;;;;;;;57.47;20.60;;;10.00;60.40;;;;;;5073599;28;20384;-75
2023/02/04 10:31:39;;;;;;;61.50;17.08;;;10.10;57.80;;;;;;5070394;28;20479;-75
2023/02/04 10:34:12;;;;;;;68.25;17.80;;;10.00;60.10;;;;;;5071895;28;20425;-75
2023/02/04 10:36:40;;;;;;;47.92;15.25;;;10.10;60.20;;;;;;5070317;28;20376;-75
2023/02/04 10:39:11;;;;;;;58.60;16.73;;;9.90;58.30;;;;;;5070436;28;20382;-75
2023/02/04 10:41:38;;;;;;;49.75;14.88;;;9.90;61.30;;;;;;5073932;28;20412;-76
2023/02/04 10:44:11;;;;;;;45.80;13.73;;;9.80;62.80;;;;;;5073526;28;20769;-76
2023/02/04 10:46:36;;;;;;;58.08;15.43;;;9.80;64.60;;;;;;5075549;28;20454;-75
2023/02/04 10:49:15;;;;;;;58.83;15.40;;;10.10;61.20;;;;;;5072979;28;20427;-75
2023/02/04 10:51:41;;;;;;;58.80;15.75;;;10.00;62.20;;;;;;5061394;28;20798;-76
2023/02/04 10:54:29;;;;;;;57.50;17.48;;;10.10;60.90;;;;;;5053011;28;20389;-74
2023/02/04 10:57:05;;;;;;;53.08;17.33;;;10.00;62.00;;;;;;5064580;28;20496;-75
2023/02/04 10:59:32;;;;;;;65.35;19.48;;;9.80;64.10;;;;;;5071776;28;20671;-75
2023/02/04 11:02:00;;;;;;;65.53;20.58;;;9.90;63.90;;;;;;5071184;28;20912;-75
2023/02/04 11:04:27;;;;;;;59.28;20.92;;;10.00;64.90;;;;;;5071198;28;20407;-75
2023/02/04 11:06:54;;;;;;;64.70;25.00;;;10.30;57.50;;;;;;5071594;28;20454;-75
2023/02/04 11:09:20;;;;;;;73.20;26.02;;;10.30;57.20;;;;;;5055132;28;20433;-75
2023/02/04 11:11:48;;;;;;;66.20;25.80;;;10.40;55.80;;;;;;5063231;28;20392;-77
2023/02/04 11:14:32;;;;;;;77.05;24.85;;;10.30;56.20;;;;;;5070417;28;20461;-76
2023/02/04 11:17:00;;;;;;;65.25;24.63;;;10.30;57.30;;;;;;5068906;28;20410;-75
2023/02/04 11:19:37;;;;;;;77.43;24.67;;;10.30;57.20;;;;;;5052107;28;20955;-75
2023/02/04 11:22:34;;;;;;;73.20;24.10;;;10.10;58.60;;;;;;5061399;28;20423;-76
2023/02/04 11:25:00;;;;;;;67.32;25.42;;;10.00;59.20;;;;;;5074299;28;20878;-76
2023/02/04 11:27:38;;;;;;;70.60;25.90;;;10.10;58.20;;;;;;5073297;28;20460;-76
2023/02/04 11:30:18;;;;;;;79.20;26.05;;;10.00;57.10;;;;;;5072974;28;20376;-76
2023/02/04 11:32:59;;;;;;;72.25;26.10;;;10.10;57.90;;;;;;5074872;28;20939;-77
2023/02/04 11:35:30;;;;;;;61.75;25.45;;;10.10;55.50;;;;;;5075751;28;20399;-77
2023/02/04 11:37:56;;;;;;;73.00;26.30;;;10.10;55.10;;;;;;5074592;28;20375;-76
2023/02/04 11:40:25;;;;;;;79.70;26.57;;;10.10;54.50;;;;;;5074899;28;20395;-77
2023/02/04 11:43:00;;;;;;;86.00;27.40;;;10.30;54.40;;;;;;5074371;28;20849;-77
2023/02/04 11:45:39;;;;;;;82.03;28.23;;;10.20;54.80;;;;;;5074787;28;20404;-77
2023/02/04 11:48:17;;;;;;;78.87;28.43;;;10.30;52.40;;;;;;5074405;28;20497;-76
2023/02/04 11:50:53;;;;;;;75.50;27.40;;;10.40;51.50;;;;;;5075219;28;20406;-77
2023/02/04 11:53:18;;;;;;;80.63;29.67;;;10.40;51.20;;;;;;5075293;28;20467;-77
2023/02/04 11:55:45;;;;;;;95.03;29.90;;;10.50;50.80;;;;;;5075692;28;20772;-76
2023/02/04 11:58:15;;;;;;;77.32;25.38;;;10.70;48.70;;;;;;5075572;28;20387;-76
2023/02/04 12:00:41;;;;;;;79.13;27.48;;;10.50;47.30;;;;;;5075508;28;20468;-75
2023/02/04 12:03:21;;;;;;;69.78;24.48;;;10.40;49.20;;;;;;5077045;28;20388;-75
2023/02/04 12:05:48;;;;;;;75.07;24.90;;;10.60;48.50;;;;;;5078622;28;20483;-75
2023/02/04 12:08:22;;;;;;;75.47;24.73;;;10.80;48.90;;;;;;5077532;28;20389;-76
2023/02/04 12:10:57;;;;;;;71.55;25.25;;;11.00;47.20;;;;;;5085132;28;20380;-76
2023/02/04 12:13:24;;;;;;;73.07;22.58;;;11.00;47.70;;;;;;5091289;28;20431;-75
2023/02/04 12:16:05;;;;;;;61.47;19.17;;;11.00;46.80;;;;;;5077981;28;20388;-76
2023/02/04 12:18:32;;;;;;;76.68;19.25;;;11.10;43.80;;;;;;5073462;28;20752;-76
2023/02/04 12:20:59;;;;;;;57.03;17.80;;;11.20;43.90;;;;;;5072833;28;20386;-76
2023/02/04 12:23:27;;;;;;;54.60;18.47;;;11.30;41.50;;;;;;5072651;28;20396;-76
2023/02/04 12:25:52;;;;;;;55.85;18.77;;;11.20;41.30;;;;;;5073069;28;20802;-76
2023/02/04 12:28:18;;;;;;;69.93;20.20;;;11.20;42.30;;;;;;5071271;28;20388;-76
2023/02/04 12:30:44;;;;;;;59.15;18.15;;;11.20;43.00;;;;;;5072399;28;20856;-77
2023/02/04 12:33:10;;;;;;;52.03;16.88;;;11.40;41.80;;;;;;5072816;28;20444;-77
2023/02/04 12:35:35;;;;;;;64.57;19.50;;;11.50;40.60;;;;;;5073454;28;20384;-77
2023/02/04 12:38:01;;;;;;;50.03;16.20;;;11.70;39.00;;;;;;5073210;28;20380;-77
2023/02/04 12:40:27;;;;;;;55.40;14.63;;;11.60;37.90;;;;;;5072650;28;20402;-77
2023/02/04 12:42:53;;;;;;;44.70;14.98;;;11.60;37.10;;;;;;5075803;28;20388;-77